This is the latest recevied weather packets stored in our database for station/object OE-11344. If no packets are shown the sender has not sent any weather packets the latest 10 day(s).
| Time | Temp. | Humidity | Pressure | Rain* | Wind** | Luminosity | Snow |
|---|---|---|---|---|---|---|---|
| 1787736312 | 17.22° C | 62% | 854.8 hPa | 0 mm | - | 731 W/m² | - |
| 1787735485 | 16.67° C | 70% | 854.8 hPa | 0 mm | - | 676 W/m² | - |
| 1787735112 | 16.67° C | 61% | 854.5 hPa | 0 mm | - | 670 W/m² | - |
| 1787733685 | 15.56° C | 68% | 854.5 hPa | 0 mm | - | 640 W/m² | - |
| 1787733312 | 15.56° C | 76% | 854.5 hPa | 0 mm | - | 586 W/m² | - |
| 1787732711 | 16.67° C | 64% | 854.3 hPa | 0 mm | - | 586 W/m² | - |
| 1787731885 | 17.22° C | 67% | 854.2 hPa | 0 mm | - | 562 W/m² | - |
| 1787731512 | 16.11° C | 75% | 854.1 hPa | 0 mm | - | 531 W/m² | - |
| 1787730912 | 16.11° C | 72% | 854.3 hPa | 0 mm | - | 507 W/m² | - |
| 1787730085 | 15° C | 81% | 854.2 hPa | 0 mm | - | 495 W/m² | - |
| 1787729712 | 15° C | 74% | 854.1 hPa | 0 mm | - | 471 W/m² | - |
| 1787729112 | 15.56° C | 76% | 854 hPa | 0 mm | - | 483 W/m² | - |
| 1787728284 | 14.44° C | 76% | 854 hPa | 0 mm | - | 386 W/m² | - |
| 1787727912 | 14.44° C | 81% | 854 hPa | 0 mm | - | 417 W/m² | - |
| 1787727312 | 13.33° C | 82% | 854 hPa | 0 mm | - | 380 W/m² | - |
| 1787726723 | 12.22° C | 85% | 854.1 hPa | 0 mm | - | 344 W/m² | - |
| 1787726112 | 12.22° C | 79% | 853.9 hPa | 0 mm | - | 127 W/m² | - |
| 1787725512 | 11.67° C | 84% | 853.9 hPa | 0 mm | - | 66 W/m² | - |
| 1787724684 | 11.67° C | 84% | 854.1 hPa | 0 mm | - | 79 W/m² | - |
| 1787724312 | 10.56° C | 91% | 853.9 hPa | 0 mm | - | 79 W/m² | - |
| 1787723711 | 10.56° C | 91% | 853.9 hPa | 0 mm | - | 48 W/m² | - |
| 1787722884 | 10.56° C | 93% | 853.8 hPa | 0 mm | - | 42 W/m² | - |
| 1787722512 | 11.11° C | 82% | 853.7 hPa | 0 mm | - | 42 W/m² | - |
| 1787721912 | 10° C | 90% | 853.6 hPa | 0 mm | - | 48 W/m² | - |
| 1787721084 | 10° C | 89% | 853.6 hPa | 0 mm | - | 24 W/m² | - |
* Rain latest hour (hover to see other rain measurements)
** Current wind speed in m/s (hover to see current wind gust speed)